Shoryu Maru — JD2864 — position and weather

sailwx.info

Track history (hours):
 
Tides and Currents Weather Stations Pressure Air Temp Water Temp Dewpoint Dewpoint Depression Visibility Wind Speed Wind Dir Waves Ship Positions

Shoryu Maru

Last reported at 2018-Jun-25 10:02 UTC. Time now 2018-Jun-25 17:34 UTC.
Position N 33°47' E 135°06'.

Length 68 m; draft 3.9 m.

Type: Tanker. MMSI: 431000689.

Date/timePositionNaut miles runAvg speedWind from/ knotsBaromVisibWave heightAir tempDewpointWater temp
2018-Jun-25 10:02N 33°47' E 135°06'111.5
2018-Jun-25 09:59N 33°47' E 135°05'611.7
2018-Jun-25 09:30N 33°51' E 135°01'510.8
2018-Jun-25 09:01N 33°56' E 134°59'611.0
2018-Jun-25 08:30N 34°02' E 134°59'611.3
2018-Jun-25 08:01N 34°08' E 134°59'612.4
2018-Jun-25 07:30N 34°14' E 134°59'511.0
2018-Jun-25 07:01N 34°19' E 134°59'510.8
2018-Jun-25 06:30N 34°25' E 135°00'612.1
2018-Jun-25 06:00N 34°30' E 135°02'611.5
2018-Jun-25 05:31N 34°36' E 135°03'713.2
2018-Jun-25 05:00N 34°37' E 134°55'15 1.0
2018-Jun-24 13:37N 34°41' E 134°37'111.8
2018-Jun-24 13:31N 34°40' E 134°38'612.2
2018-Jun-24 13:00N 34°34' E 134°38'612.1
2018-Jun-24 12:31N 34°28' E 134°37'612.0
2018-Jun-24 12:01N 34°22' E 134°38'810.8
2018-Jun-24 11:17N 34°14' E 134°39'911.9
2018-Jun-24 10:32N 34°07' E 134°46'111.9
2018-Jun-24 10:28N 34°07' E 134°47'612.5
2018-Jun-24 10:00N 34°03' E 134°51'612.5
2018-Jun-24 09:30N 33°58' E 134°57'612.0
2018-Jun-24 09:00N 33°53' E 135°01'244 9.5
2018-Jun-23 07:18N 35°09' E 139°43'311.5
2018-Jun-23 06:59N 35°11' E 139°45'511.0
2018-Jun-23 06:31N 35°17' E 139°45'611.6
2018-Jun-23 06:00N 35°22' E 139°42'510.9
2018-Jun-23 05:30N 35°26' E 139°46'611.5
2018-Jun-23 05:01N 35°30' E 139°52'9 1.5
2018-Jun-22 23:15N 35°32' E 140°02'2 6.7
2018-Jun-22 23:00N 35°32' E 140°00'5 9.2
2018-Jun-22 22:29N 35°29' E 139°56'0 0.1
2018-Jun-22 22:00N 35°29' E 139°56'0 0.0
2018-Jun-22 21:07N 35°29' E 139°56'0 0.0
2018-Jun-22 20:58N 35°29' E 139°56'0 0.0
2018-Jun-22 19:46N 35°29' E 139°56'0 0.1
2018-Jun-22 19:07N 35°29' E 139°56'0 0.0
2018-Jun-22 18:58N 35°29' E 139°56'0 0.0
2018-Jun-22 18:13N 35°29' E 139°56'0 0.0
2018-Jun-22 17:37N 35°29' E 139°56'0 0.0
2018-Jun-22 17:10N 35°29' E 139°56'0 0.0
2018-Jun-22 16:58N 35°29' E 139°56'0 0.0
2018-Jun-22 16:25N 35°29' E 139°56'0 0.0
2018-Jun-22 15:55N 35°29' E 139°56'0 0.1
2018-Jun-22 15:13N 35°29' E 139°56'0 0.2
2018-Jun-22 14:58N 35°29' E 139°56'0 0.1
2018-Jun-22 14:28N 35°29' E 139°56'0 0.0
2018-Jun-22 11:16N 35°29' E 139°56'0 0.0
2018-Jun-22 10:34N 35°29' E 139°56'0 0.6
2018-Jun-22 10:30N 35°29' E 139°56'610.4
2018-Jun-22 09:57N 35°27' E 139°49'512.3
2018-Jun-22 09:30N 35°22' E 139°45'611.0
2018-Jun-22 09:00N 35°17' E 139°46'24911.0
2018-Jun-21 10:15N 33°50' E 135°02'412.3
2018-Jun-21 09:57N 33°52' E 134°59'3312.1
2018-Jun-21 07:15N 34°17' E 134°33'312.2
2018-Jun-21 06:59N 34°18' E 134°30'10 0.2
2018-Jun-19 11:51N 34°24' E 134°19'411.0
2018-Jun-19 11:29N 34°24' E 134°24'612.2
2018-Jun-19 10:59N 34°20' E 134°30'1011.2
2018-Jun-19 10:08N 34°14' E 134°39'111.3
2018-Jun-19 10:00N 34°13' E 134°40'610.9
2018-Jun-19 09:28N 34°08' E 134°45'511.2
2018-Jun-19 09:00N 34°04' E 134°49'811.6
2018-Jun-19 08:20N 33°59' E 134°55'511.9
2018-Jun-19 07:54N 33°55' E 134°59'24510.1
2018-Jun-18 07:42N 35°09' E 139°43'212.1
2018-Jun-18 07:30N 35°11' E 139°45'510.7
2018-Jun-18 07:00N 35°16' E 139°46'611.4
2018-Jun-18 06:31N 35°21' E 139°42'510.5
2018-Jun-18 06:01N 35°26' E 139°45'611.8
2018-Jun-18 05:30N 35°29' E 139°51'9 1.5
2018-Jun-17 23:22N 35°32' E 140°02'610.5
2018-Jun-17 22:46N 35°28' E 139°55'0 0.1
2018-Jun-17 20:14N 35°28' E 139°55'0 0.0
2018-Jun-17 19:50N 35°28' E 139°55'0 1.5
2018-Jun-17 19:30N 35°28' E 139°54'510.9
2018-Jun-17 19:00N 35°26' E 139°48'612.2
2018-Jun-17 18:29N 35°20' E 139°45'611.7
2018-Jun-17 18:00N 35°15' E 139°47'612.2
2018-Jun-17 17:29N 35°09' E 139°47'24810.6
2018-Jun-16 18:03N 33°50' E 135°02'112.8
2018-Jun-16 18:00N 33°51' E 135°01'3412.7
2018-Jun-16 15:17N 34°17' E 134°34'311.3
2018-Jun-16 15:00N 34°18' E 134°30'611.5
2018-Jun-16 14:30N 34°20' E 134°24'9 0.5
2018-Jun-15 21:40N 34°24' E 134°14'1411.5
2018-Jun-15 20:29N 34°28' E 134°30'911.6
2018-Jun-15 19:40N 34°31' E 134°41'911.3
2018-Jun-15 18:55N 34°34' E 134°50'4 9.5
2018-Jun-15 18:28N 34°36' E 134°55'4 9.6
2018-Jun-15 18:00N 34°37' E 135°00'4 8.6
2018-Jun-15 17:30N 34°35' E 135°05'510.8
2018-Jun-15 17:00N 34°30' E 135°04'510.8
2018-Jun-15 16:30N 34°25' E 135°03'510.9
2018-Jun-15 16:00N 34°20' E 135°00'510.8
2018-Jun-15 15:30N 34°14' E 134°59'611.5
2018-Jun-15 15:00N 34°08' E 134°60'611.4
2018-Jun-15 14:30N 34°03' E 135°01'911.5
2018-Jun-15 13:44N 33°54' E 135°02'  
Track history (hours):
 
Tides and Currents Weather Stations Pressure Air Temp Water Temp Dewpoint Dewpoint Depression Visibility Wind Speed Wind Dir Waves Ship Positions

Shoryu Maru

Last reported at 2018-Jun-25 10:02 UTC. Time now 2018-Jun-25 17:34 UTC.
Position N 33°47' E 135°06'.

Length 68 m; draft 3.9 m.

Type: Tanker. MMSI: 431000689.

Date/timePositionNaut miles runAvg speedWind from/ knotsBaromVisibWave heightAir tempDewpointWater temp
2018-Jun-25 10:02N 33°47' E 135°06'111.5
2018-Jun-25 09:59N 33°47' E 135°05'611.7
2018-Jun-25 09:30N 33°51' E 135°01'510.8
2018-Jun-25 09:01N 33°56' E 134°59'611.0
2018-Jun-25 08:30N 34°02' E 134°59'611.3
2018-Jun-25 08:01N 34°08' E 134°59'612.4
2018-Jun-25 07:30N 34°14' E 134°59'511.0
2018-Jun-25 07:01N 34°19' E 134°59'510.8
2018-Jun-25 06:30N 34°25' E 135°00'612.1
2018-Jun-25 06:00N 34°30' E 135°02'611.5
2018-Jun-25 05:31N 34°36' E 135°03'713.2
2018-Jun-25 05:00N 34°37' E 134°55'15 1.0
2018-Jun-24 13:37N 34°41' E 134°37'111.8
2018-Jun-24 13:31N 34°40' E 134°38'612.2
2018-Jun-24 13:00N 34°34' E 134°38'612.1
2018-Jun-24 12:31N 34°28' E 134°37'612.0
2018-Jun-24 12:01N 34°22' E 134°38'810.8
2018-Jun-24 11:17N 34°14' E 134°39'911.9
2018-Jun-24 10:32N 34°07' E 134°46'111.9
2018-Jun-24 10:28N 34°07' E 134°47'612.5
2018-Jun-24 10:00N 34°03' E 134°51'612.5
2018-Jun-24 09:30N 33°58' E 134°57'612.0
2018-Jun-24 09:00N 33°53' E 135°01'244 9.5
2018-Jun-23 07:18N 35°09' E 139°43'311.5
2018-Jun-23 06:59N 35°11' E 139°45'511.0
2018-Jun-23 06:31N 35°17' E 139°45'611.6
2018-Jun-23 06:00N 35°22' E 139°42'510.9
2018-Jun-23 05:30N 35°26' E 139°46'611.5
2018-Jun-23 05:01N 35°30' E 139°52'9 1.5
2018-Jun-22 23:15N 35°32' E 140°02'2 6.7
2018-Jun-22 23:00N 35°32' E 140°00'5 9.2
2018-Jun-22 22:29N 35°29' E 139°56'0 0.1
2018-Jun-22 22:00N 35°29' E 139°56'0 0.0
2018-Jun-22 21:07N 35°29' E 139°56'0 0.0
2018-Jun-22 20:58N 35°29' E 139°56'0 0.0
2018-Jun-22 19:46N 35°29' E 139°56'0 0.1
2018-Jun-22 19:07N 35°29' E 139°56'0 0.0
2018-Jun-22 18:58N 35°29' E 139°56'0 0.0
2018-Jun-22 18:13N 35°29' E 139°56'0 0.0
2018-Jun-22 17:37N 35°29' E 139°56'0 0.0
2018-Jun-22 17:10N 35°29' E 139°56'0 0.0
2018-Jun-22 16:58N 35°29' E 139°56'0 0.0
2018-Jun-22 16:25N 35°29' E 139°56'0 0.0
2018-Jun-22 15:55N 35°29' E 139°56'0 0.1
2018-Jun-22 15:13N 35°29' E 139°56'0 0.2
2018-Jun-22 14:58N 35°29' E 139°56'0 0.1
2018-Jun-22 14:28N 35°29' E 139°56'0 0.0
2018-Jun-22 11:16N 35°29' E 139°56'0 0.0
2018-Jun-22 10:34N 35°29' E 139°56'0 0.6
2018-Jun-22 10:30N 35°29' E 139°56'610.4
2018-Jun-22 09:57N 35°27' E 139°49'512.3
2018-Jun-22 09:30N 35°22' E 139°45'611.0
2018-Jun-22 09:00N 35°17' E 139°46'24911.0
2018-Jun-21 10:15N 33°50' E 135°02'412.3
2018-Jun-21 09:57N 33°52' E 134°59'3312.1
2018-Jun-21 07:15N 34°17' E 134°33'312.2
2018-Jun-21 06:59N 34°18' E 134°30'10 0.2
2018-Jun-19 11:51N 34°24' E 134°19'411.0
2018-Jun-19 11:29N 34°24' E 134°24'612.2
2018-Jun-19 10:59N 34°20' E 134°30'1011.2
2018-Jun-19 10:08N 34°14' E 134°39'111.3
2018-Jun-19 10:00N 34°13' E 134°40'610.9
2018-Jun-19 09:28N 34°08' E 134°45'511.2
2018-Jun-19 09:00N 34°04' E 134°49'811.6
2018-Jun-19 08:20N 33°59' E 134°55'511.9
2018-Jun-19 07:54N 33°55' E 134°59'24510.1
2018-Jun-18 07:42N 35°09' E 139°43'212.1
2018-Jun-18 07:30N 35°11' E 139°45'510.7
2018-Jun-18 07:00N 35°16' E 139°46'611.4
2018-Jun-18 06:31N 35°21' E 139°42'510.5
2018-Jun-18 06:01N 35°26' E 139°45'611.8
2018-Jun-18 05:30N 35°29' E 139°51'9 1.5
2018-Jun-17 23:22N 35°32' E 140°02'610.5
2018-Jun-17 22:46N 35°28' E 139°55'0 0.1
2018-Jun-17 20:14N 35°28' E 139°55'0 0.0
2018-Jun-17 19:50N 35°28' E 139°55'0 1.5
2018-Jun-17 19:30N 35°28' E 139°54'510.9
2018-Jun-17 19:00N 35°26' E 139°48'612.2
2018-Jun-17 18:29N 35°20' E 139°45'611.7
2018-Jun-17 18:00N 35°15' E 139°47'612.2
2018-Jun-17 17:29N 35°09' E 139°47'24810.6
2018-Jun-16 18:03N 33°50' E 135°02'112.8
2018-Jun-16 18:00N 33°51' E 135°01'3412.7
2018-Jun-16 15:17N 34°17' E 134°34'311.3
2018-Jun-16 15:00N 34°18' E 134°30'611.5
2018-Jun-16 14:30N 34°20' E 134°24'9 0.5
2018-Jun-15 21:40N 34°24' E 134°14'1411.5
2018-Jun-15 20:29N 34°28' E 134°30'911.6
2018-Jun-15 19:40N 34°31' E 134°41'911.3
2018-Jun-15 18:55N 34°34' E 134°50'4 9.5
2018-Jun-15 18:28N 34°36' E 134°55'4 9.6
2018-Jun-15 18:00N 34°37' E 135°00'4 8.6
2018-Jun-15 17:30N 34°35' E 135°05'510.8
2018-Jun-15 17:00N 34°30' E 135°04'510.8
2018-Jun-15 16:30N 34°25' E 135°03'510.9
2018-Jun-15 16:00N 34°20' E 135°00'510.8
2018-Jun-15 15:30N 34°14' E 134°59'611.5
2018-Jun-15 15:00N 34°08' E 134°60'611.4
2018-Jun-15 14:30N 34°03' E 135°01'911.5
2018-Jun-15 13:44N 33°54' E 135°02'  

Dump ship's entire track history